sensor_id;sensor_type;location;lat;lon;timestamp;pressure;altitude;pressure_sealevel;temperature;humidity
12951;BME280;6540;50.858;7.232;2024-02-26T00:00:07;52076.44;;;-142.34;32.08
12951;BME280;6540;50.858;7.232;2024-02-26T00:02:36;52072.41;;;-142.34;33.10
12951;BME280;6540;50.858;7.232;2024-02-26T00:05:05;52056.28;;;-142.34;32.86
12951;BME280;6540;50.858;7.232;2024-02-26T00:07:30;52076.44;;;-142.34;32.45
12951;BME280;6540;50.858;7.232;2024-02-26T00:09:55;52084.53;;;-142.34;33.09
12951;BME280;6540;50.858;7.232;2024-02-26T00:12:21;52088.56;;;-142.34;33.67
12951;BME280;6540;50.858;7.232;2024-02-26T00:14:46;52074.44;;;-142.34;33.49
12951;BME280;6540;50.858;7.232;2024-02-26T00:17:13;52056.28;;;-142.34;34.43
12951;BME280;6540;50.858;7.232;2024-02-26T00:19:38;52090.56;;;-142.34;34.09
12951;BME280;6540;50.858;7.232;2024-02-26T00:22:04;52080.50;;;-142.34;34.99
12951;BME280;6540;50.858;7.232;2024-02-26T00:24:29;52032.06;;;-142.34;34.89
12951;BME280;6540;50.858;7.232;2024-02-26T00:26:54;52064.34;;;-142.34;35.16
12951;BME280;6540;50.858;7.232;2024-02-26T00:29:20;52044.19;;;-142.34;35.18
12951;BME280;6540;50.858;7.232;2024-02-26T00:31:46;52034.09;;;-142.34;35.59
12951;BME280;6540;50.858;7.232;2024-02-26T00:34:12;52068.38;;;-142.34;35.81
12951;BME280;6540;50.858;7.232;2024-02-26T00:36:37;52068.38;;;-142.34;36.01
12951;BME280;6540;50.858;7.232;2024-02-26T00:39:02;52044.19;;;-142.34;37.58
12951;BME280;6540;50.858;7.232;2024-02-26T00:41:29;52052.25;;;-142.34;36.53
12951;BME280;6540;50.858;7.232;2024-02-26T00:43:54;52076.44;;;-142.34;36.62
12951;BME280;6540;50.858;7.232;2024-02-26T00:46:19;52046.19;;;-142.34;35.87
12951;BME280;6540;50.858;7.232;2024-02-26T00:48:44;52098.66;;;-142.34;36.68
12951;BME280;6540;50.858;7.232;2024-02-26T00:51:10;52038.13;;;-142.34;36.17
12951;BME280;6540;50.858;7.232;2024-02-26T00:53:35;52048.22;;;-142.34;35.80
12951;BME280;6540;50.858;7.232;2024-02-26T00:56:01;52042.16;;;-142.34;36.17
12951;BME280;6540;50.858;7.232;2024-02-26T00:58:27;52050.22;;;-142.34;37.31
12951;BME280;6540;50.858;7.232;2024-02-26T01:00:52;52052.25;;;-142.34;36.83
12951;BME280;6540;50.858;7.232;2024-02-26T01:03:18;52046.19;;;-142.34;37.09
12951;BME280;6540;50.858;7.232;2024-02-26T01:05:43;52076.44;;;-142.34;38.06
12951;BME280;6540;50.858;7.232;2024-02-26T01:08:09;52052.25;;;-142.34;38.14
12951;BME280;6540;50.858;7.232;2024-02-26T01:10:34;52056.28;;;-142.34;38.47
12951;BME280;6540;50.858;7.232;2024-02-26T01:13:00;52040.13;;;-142.34;39.02
12951;BME280;6540;50.858;7.232;2024-02-26T01:15:25;52060.31;;;-142.34;39.13
12951;BME280;6540;50.858;7.232;2024-02-26T01:17:51;52060.31;;;-142.34;38.01
12951;BME280;6540;50.858;7.232;2024-02-26T01:20:16;52058.28;;;-142.34;38.75
12951;BME280;6540;50.858;7.232;2024-02-26T01:22:43;52028.03;;;-142.34;37.74
12951;BME280;6540;50.858;7.232;2024-02-26T01:25:08;52076.44;;;-142.34;38.45
12951;BME280;6540;50.858;7.232;2024-02-26T01:27:35;52032.06;;;-142.34;38.12
12951;BME280;6540;50.858;7.232;2024-02-26T01:30:04;52056.28;;;-142.34;37.55
12951;BME280;6540;50.858;7.232;2024-02-26T01:32:30;52028.03;;;-142.34;38.01
12951;BME280;6540;50.858;7.232;2024-02-26T01:34:56;52060.31;;;-142.34;37.82
12951;BME280;6540;50.858;7.232;2024-02-26T01:37:21;52024.00;;;-142.34;38.98
12951;BME280;6540;50.858;7.232;2024-02-26T01:39:46;52036.09;;;-142.34;39.12
12951;BME280;6540;50.858;7.232;2024-02-26T01:42:12;52068.38;;;-142.34;39.46
12951;BME280;6540;50.858;7.232;2024-02-26T01:44:37;52064.34;;;-142.34;37.80
12951;BME280;6540;50.858;7.232;2024-02-26T01:47:04;52028.03;;;-142.34;39.41
12951;BME280;6540;50.858;7.232;2024-02-26T01:49:29;52068.38;;;-142.34;38.11
12951;BME280;6540;50.858;7.232;2024-02-26T01:51:55;52078.47;;;-142.34;37.50
12951;BME280;6540;50.858;7.232;2024-02-26T01:54:22;52056.28;;;-142.34;38.45
12951;BME280;6540;50.858;7.232;2024-02-26T01:56:49;52056.28;;;-142.34;38.81
12951;BME280;6540;50.858;7.232;2024-02-26T01:59:14;52054.25;;;-142.34;37.62
12951;BME280;6540;50.858;7.232;2024-02-26T02:01:43;52084.53;;;-142.34;38.66
12951;BME280;6540;50.858;7.232;2024-02-26T02:04:10;52058.28;;;-142.34;39.43
12951;BME280;6540;50.858;7.232;2024-02-26T02:06:37;52068.38;;;-142.34;38.56
12951;BME280;6540;50.858;7.232;2024-02-26T02:09:03;52084.53;;;-142.34;39.31
12951;BME280;6540;50.858;7.232;2024-02-26T02:11:33;52064.34;;;-142.34;38.30
12951;BME280;6540;50.858;7.232;2024-02-26T02:13:58;52088.56;;;-142.34;39.12
12951;BME280;6540;50.858;7.232;2024-02-26T02:16:24;52076.44;;;-142.34;37.74
12951;BME280;6540;50.858;7.232;2024-02-26T02:18:49;52068.38;;;-142.34;38.98
12951;BME280;6540;50.858;7.232;2024-02-26T02:21:15;52052.25;;;-142.34;39.46
12951;BME280;6540;50.858;7.232;2024-02-26T02:23:40;52056.28;;;-142.34;38.98
12951;BME280;6540;50.858;7.232;2024-02-26T02:26:07;52056.28;;;-142.34;40.30
12951;BME280;6540;50.858;7.232;2024-02-26T02:28:33;52024.00;;;-142.34;39.70
12951;BME280;6540;50.858;7.232;2024-02-26T02:30:58;52050.22;;;-142.34;39.08
12951;BME280;6540;50.858;7.232;2024-02-26T02:33:25;52072.41;;;-142.34;39.63
12951;BME280;6540;50.858;7.232;2024-02-26T02:35:51;52028.03;;;-142.34;39.67
12951;BME280;6540;50.858;7.232;2024-02-26T02:38:19;52062.34;;;-142.34;39.61
12951;BME280;6540;50.858;7.232;2024-02-26T02:40:44;52036.09;;;-142.34;40.51
12951;BME280;6540;50.858;7.232;2024-02-26T02:43:10;52050.22;;;-142.34;40.09
12951;BME280;6540;50.858;7.232;2024-02-26T02:45:35;52048.22;;;-142.34;40.04
12951;BME280;6540;50.858;7.232;2024-02-26T02:48:00;52072.41;;;-142.34;40.65
12951;BME280;6540;50.858;7.232;2024-02-26T02:50:26;52040.13;;;-142.34;39.48
12951;BME280;6540;50.858;7.232;2024-02-26T02:52:51;52032.06;;;-142.34;40.25
12951;BME280;6540;50.858;7.232;2024-02-26T02:55:17;52040.13;;;-142.34;38.50
12951;BME280;6540;50.858;7.232;2024-02-26T02:57:43;52028.03;;;-142.34;40.24
12951;BME280;6540;50.858;7.232;2024-02-26T03:00:10;52080.50;;;-142.34;39.79
12951;BME280;6540;50.858;7.232;2024-02-26T03:02:36;52052.25;;;-142.34;38.68
12951;BME280;6540;50.858;7.232;2024-02-26T03:05:03;52066.38;;;-142.34;37.86
12951;BME280;6540;50.858;7.232;2024-02-26T03:07:28;52052.25;;;-142.34;38.88
12951;BME280;6540;50.858;7.232;2024-02-26T03:09:54;52064.34;;;-142.34;38.38
12951;BME280;6540;50.858;7.232;2024-02-26T03:12:19;52050.22;;;-142.34;38.70
12951;BME280;6540;50.858;7.232;2024-02-26T03:14:45;52060.31;;;-142.34;38.33
12951;BME280;6540;50.858;7.232;2024-02-26T03:17:10;52066.38;;;-142.34;41.26
12951;BME280;6540;50.858;7.232;2024-02-26T03:19:35;52046.19;;;-142.34;40.82
12951;BME280;6540;50.858;7.232;2024-02-26T03:22:01;52048.22;;;-142.34;40.88
12951;BME280;6540;50.858;7.232;2024-02-26T03:24:26;52044.19;;;-142.34;39.98
12951;BME280;6540;50.858;7.232;2024-02-26T03:26:51;52086.53;;;-142.34;40.30
12951;BME280;6540;50.858;7.232;2024-02-26T03:29:17;52064.34;;;-142.34;40.86
12951;BME280;6540;50.858;7.232;2024-02-26T03:31:42;52068.38;;;-142.34;38.74
12951;BME280;6540;50.858;7.232;2024-02-26T03:34:08;52074.44;;;-142.34;39.29
12951;BME280;6540;50.858;7.232;2024-02-26T03:36:34;52096.63;;;-142.34;40.17
12951;BME280;6540;50.858;7.232;2024-02-26T03:38:59;52048.22;;;-142.34;39.19
12951;BME280;6540;50.858;7.232;2024-02-26T03:41:24;52040.13;;;-142.34;39.83
12951;BME280;6540;50.858;7.232;2024-02-26T03:43:50;52102.69;;;-142.34;39.76
12951;BME280;6540;50.858;7.232;2024-02-26T03:46:15;52070.41;;;-142.34;39.50
12951;BME280;6540;50.858;7.232;2024-02-26T03:48:41;52086.53;;;-142.34;39.91
12951;BME280;6540;50.858;7.232;2024-02-26T03:51:08;52060.31;;;-142.34;39.66
12951;BME280;6540;50.858;7.232;2024-02-26T03:53:33;52100.66;;;-142.34;39.24
12951;BME280;6540;50.858;7.232;2024-02-26T03:56:03;52068.38;;;-142.34;40.19
12951;BME280;6540;50.858;7.232;2024-02-26T03:58:28;52098.66;;;-142.34;39.82
12951;BME280;6540;50.858;7.232;2024-02-26T04:00:54;52062.34;;;-142.34;38.53
12951;BME280;6540;50.858;7.232;2024-02-26T04:03:19;52078.47;;;-142.34;39.07
12951;BME280;6540;50.858;7.232;2024-02-26T04:05:44;52120.84;;;-142.34;38.32
12951;BME280;6540;50.858;7.232;2024-02-26T04:08:10;52056.28;;;-142.34;38.97
12951;BME280;6540;50.858;7.232;2024-02-26T04:10:36;52078.47;;;-142.34;40.43
12951;BME280;6540;50.858;7.232;2024-02-26T04:13:04;52076.44;;;-142.34;37.61
12951;BME280;6540;50.858;7.232;2024-02-26T04:15:29;52064.34;;;-142.34;36.94
12951;BME280;6540;50.858;7.232;2024-02-26T04:17:55;52120.84;;;-142.34;37.81
12951;BME280;6540;50.858;7.232;2024-02-26T04:20:21;52096.63;;;-142.34;39.16
12951;BME280;6540;50.858;7.232;2024-02-26T04:22:46;52070.41;;;-142.34;39.19
12951;BME280;6540;50.858;7.232;2024-02-26T04:25:12;52072.41;;;-142.34;39.85
12951;BME280;6540;50.858;7.232;2024-02-26T04:27:37;52108.72;;;-142.34;39.86
12951;BME280;6540;50.858;7.232;2024-02-26T04:30:04;52080.50;;;-142.34;40.08
12951;BME280;6540;50.858;7.232;2024-02-26T04:32:29;52088.56;;;-142.34;41.65
12951;BME280;6540;50.858;7.232;2024-02-26T04:34:55;52100.66;;;-142.34;40.59
12951;BME280;6540;50.858;7.232;2024-02-26T04:37:20;52074.44;;;-142.34;40.07
12951;BME280;6540;50.858;7.232;2024-02-26T04:39:46;52084.53;;;-142.34;40.78
12951;BME280;6540;50.858;7.232;2024-02-26T04:42:11;52120.84;;;-142.34;40.56
12951;BME280;6540;50.858;7.232;2024-02-26T04:44:37;52088.56;;;-142.34;41.95
12951;BME280;6540;50.858;7.232;2024-02-26T04:47:02;52082.50;;;-142.34;40.26
12951;BME280;6540;50.858;7.232;2024-02-26T04:49:28;52088.56;;;-142.34;40.74
12951;BME280;6540;50.858;7.232;2024-02-26T04:51:53;52072.41;;;-142.34;41.26
12951;BME280;6540;50.858;7.232;2024-02-26T04:54:19;52096.63;;;-142.34;41.50
12951;BME280;6540;50.858;7.232;2024-02-26T04:56:44;52056.28;;;-142.34;41.30
12951;BME280;6540;50.858;7.232;2024-02-26T04:59:09;52068.38;;;-142.34;40.50
12951;BME280;6540;50.858;7.232;2024-02-26T05:01:35;52082.50;;;-142.34;40.83
12951;BME280;6540;50.858;7.232;2024-02-26T05:04:02;52094.59;;;-142.34;39.50
12951;BME280;6540;50.858;7.232;2024-02-26T05:06:28;52056.28;;;-142.34;41.81
12951;BME280;6540;50.858;7.232;2024-02-26T05:08:53;52106.72;;;-142.34;39.71
12951;BME280;6540;50.858;7.232;2024-02-26T05:11:19;52094.59;;;-142.34;40.20
12951;BME280;6540;50.858;7.232;2024-02-26T05:13:44;52068.38;;;-142.34;40.45
12951;BME280;6540;50.858;7.232;2024-02-26T05:16:10;52080.50;;;-142.34;42.28
12951;BME280;6540;50.858;7.232;2024-02-26T05:18:36;52042.16;;;-142.34;41.06
12951;BME280;6540;50.858;7.232;2024-02-26T05:21:01;52074.44;;;-142.34;40.69
12951;BME280;6540;50.858;7.232;2024-02-26T05:23:28;52094.59;;;-142.34;41.04
12951;BME280;6540;50.858;7.232;2024-02-26T05:25:53;52046.19;;;-142.34;40.58
12951;BME280;6540;50.858;7.232;2024-02-26T05:28:19;52050.22;;;-142.34;41.36
12951;BME280;6540;50.858;7.232;2024-02-26T05:30:45;52064.34;;;-142.34;40.93
12951;BME280;6540;50.858;7.232;2024-02-26T05:33:11;52072.41;;;-142.34;40.76
12951;BME280;6540;50.858;7.232;2024-02-26T05:35:37;52084.53;;;-142.34;41.24
12951;BME280;6540;50.858;7.232;2024-02-26T05:38:02;52072.41;;;-142.34;41.25
12951;BME280;6540;50.858;7.232;2024-02-26T05:40:27;52100.66;;;-142.34;41.91
12951;BME280;6540;50.858;7.232;2024-02-26T05:42:53;52080.50;;;-142.34;41.40
12951;BME280;6540;50.858;7.232;2024-02-26T05:45:18;52074.44;;;-142.34;40.03
12951;BME280;6540;50.858;7.232;2024-02-26T05:47:44;52110.75;;;-142.34;41.20
12951;BME280;6540;50.858;7.232;2024-02-26T05:50:09;52096.63;;;-142.34;43.01
12951;BME280;6540;50.858;7.232;2024-02-26T05:52:36;52040.13;;;-142.34;41.88
12951;BME280;6540;50.858;7.232;2024-02-26T05:55:02;52064.34;;;-142.34;42.76
12951;BME280;6540;50.858;7.232;2024-02-26T05:57:28;52108.72;;;-142.34;42.77
12951;BME280;6540;50.858;7.232;2024-02-26T05:59:53;52046.19;;;-142.34;41.44
12951;BME280;6540;50.858;7.232;2024-02-26T06:02:18;52058.28;;;-142.34;42.13
12951;BME280;6540;50.858;7.232;2024-02-26T06:04:44;52064.34;;;-142.34;40.88
12951;BME280;6540;50.858;7.232;2024-02-26T06:07:09;52032.06;;;-142.34;41.79
12951;BME280;6540;50.858;7.232;2024-02-26T06:09:35;52076.44;;;-142.34;42.56
12951;BME280;6540;50.858;7.232;2024-02-26T06:12:00;52072.41;;;-142.34;40.73
12951;BME280;6540;50.858;7.232;2024-02-26T06:14:25;52102.69;;;-142.34;42.10
12951;BME280;6540;50.858;7.232;2024-02-26T06:16:51;52052.25;;;-142.34;42.25
12951;BME280;6540;50.858;7.232;2024-02-26T06:19:16;52104.69;;;-142.34;40.75
12951;BME280;6540;50.858;7.232;2024-02-26T06:21:41;52052.25;;;-142.34;41.33
12951;BME280;6540;50.858;7.232;2024-02-26T06:24:06;52104.69;;;-142.34;42.08
12951;BME280;6540;50.858;7.232;2024-02-26T06:26:32;52062.34;;;-142.34;42.01
12951;BME280;6540;50.858;7.232;2024-02-26T06:28:58;52116.81;;;-142.34;41.24
12951;BME280;6540;50.858;7.232;2024-02-26T06:31:24;52112.75;;;-142.34;41.97
12951;BME280;6540;50.858;7.232;2024-02-26T06:33:49;52068.38;;;-142.34;40.46
12951;BME280;6540;50.858;7.232;2024-02-26T06:36:18;52080.50;;;-142.34;42.93
12951;BME280;6540;50.858;7.232;2024-02-26T06:38:43;52098.66;;;-142.34;40.97
12951;BME280;6540;50.858;7.232;2024-02-26T06:41:08;52098.66;;;-142.34;42.29
12951;BME280;6540;50.858;7.232;2024-02-26T06:43:34;52076.44;;;-142.34;41.12
12951;BME280;6540;50.858;7.232;2024-02-26T06:46:00;52088.56;;;-142.34;42.00
12951;BME280;6540;50.858;7.232;2024-02-26T06:48:25;52070.41;;;-142.34;42.72
12951;BME280;6540;50.858;7.232;2024-02-26T06:50:50;52068.38;;;-142.34;42.76
12951;BME280;6540;50.858;7.232;2024-02-26T06:53:16;52054.25;;;-142.34;42.86
12951;BME280;6540;50.858;7.232;2024-02-26T06:55:42;52040.13;;;-142.34;42.07
12951;BME280;6540;50.858;7.232;2024-02-26T06:58:08;52054.25;;;-142.34;40.75
12951;BME280;6540;50.858;7.232;2024-02-26T07:00:34;52088.56;;;-142.34;40.50
12951;BME280;6540;50.858;7.232;2024-02-26T07:02:59;52064.34;;;-142.34;40.89
12951;BME280;6540;50.858;7.232;2024-02-26T07:05:24;52084.53;;;-142.34;41.96
12951;BME280;6540;50.858;7.232;2024-02-26T07:07:50;52080.50;;;-142.34;42.12
12951;BME280;6540;50.858;7.232;2024-02-26T07:10:15;52074.44;;;-142.34;40.73
12951;BME280;6540;50.858;7.232;2024-02-26T07:12:41;52066.38;;;-142.34;41.90
12951;BME280;6540;50.858;7.232;2024-02-26T07:15:07;52104.69;;;-142.34;42.39
12951;BME280;6540;50.858;7.232;2024-02-26T07:17:33;52056.28;;;-142.34;42.03
12951;BME280;6540;50.858;7.232;2024-02-26T07:19:59;52054.25;;;-142.34;42.88
12951;BME280;6540;50.858;7.232;2024-02-26T07:22:25;52068.38;;;-142.34;42.44
12951;BME280;6540;50.858;7.232;2024-02-26T07:24:50;52078.47;;;-142.34;41.79
12951;BME280;6540;50.858;7.232;2024-02-26T07:27:17;52076.44;;;-142.34;43.00
12951;BME280;6540;50.858;7.232;2024-02-26T07:29:43;52058.28;;;-142.34;42.94
12951;BME280;6540;50.858;7.232;2024-02-26T07:32:08;52066.38;;;-142.34;41.99
12951;BME280;6540;50.858;7.232;2024-02-26T07:34:33;52072.41;;;-142.34;42.77
12951;BME280;6540;50.858;7.232;2024-02-26T07:36:59;52072.41;;;-142.34;42.69
12951;BME280;6540;50.858;7.232;2024-02-26T07:39:24;52072.41;;;-142.34;42.48
12951;BME280;6540;50.858;7.232;2024-02-26T07:41:49;52108.72;;;-142.34;43.35
12951;BME280;6540;50.858;7.232;2024-02-26T07:44:17;52088.56;;;-142.34;42.99
12951;BME280;6540;50.858;7.232;2024-02-26T07:46:43;52076.44;;;-142.34;43.31
12951;BME280;6540;50.858;7.232;2024-02-26T07:49:08;52096.63;;;-142.34;43.01
12951;BME280;6540;50.858;7.232;2024-02-26T07:51:34;52096.63;;;-142.34;42.85
12951;BME280;6540;50.858;7.232;2024-02-26T07:54:00;52080.50;;;-142.34;42.77
12951;BME280;6540;50.858;7.232;2024-02-26T07:56:25;52104.69;;;-142.34;43.21
12951;BME280;6540;50.858;7.232;2024-02-26T07:58:51;52074.44;;;-142.34;42.88
12951;BME280;6540;50.858;7.232;2024-02-26T08:01:16;52090.56;;;-142.34;42.51
12951;BME280;6540;50.858;7.232;2024-02-26T08:03:42;52080.50;;;-142.34;43.85
12951;BME280;6540;50.858;7.232;2024-02-26T08:06:10;52090.56;;;-142.34;42.63
12951;BME280;6540;50.858;7.232;2024-02-26T08:08:35;52096.63;;;-142.34;43.24
12951;BME280;6540;50.858;7.232;2024-02-26T08:11:01;52054.25;;;-142.34;43.80
12951;BME280;6540;50.858;7.232;2024-02-26T08:13:26;52108.72;;;-142.34;43.88
12951;BME280;6540;50.858;7.232;2024-02-26T08:15:52;52038.13;;;-142.34;42.75
12951;BME280;6540;50.858;7.232;2024-02-26T08:18:18;52076.44;;;-142.34;42.09
12951;BME280;6540;50.858;7.232;2024-02-26T08:20:43;52072.41;;;-142.34;42.45
12951;BME280;6540;50.858;7.232;2024-02-26T08:23:08;52084.53;;;-142.34;43.04
12951;BME280;6540;50.858;7.232;2024-02-26T08:25:34;52080.50;;;-142.34;42.65
12951;BME280;6540;50.858;7.232;2024-02-26T08:27:59;52096.63;;;-142.34;42.07
12951;BME280;6540;50.858;7.232;2024-02-26T08:30:24;52058.28;;;-142.34;42.26
12951;BME280;6540;50.858;7.232;2024-02-26T08:32:50;52084.53;;;-142.34;41.81
12951;BME280;6540;50.858;7.232;2024-02-26T08:35:16;52080.50;;;-142.34;39.73
12951;BME280;6540;50.858;7.232;2024-02-26T08:37:44;52096.63;;;-142.34;41.00
12951;BME280;6540;50.858;7.232;2024-02-26T08:40:11;52052.25;;;-142.34;40.85
12951;BME280;6540;50.858;7.232;2024-02-26T08:42:36;52112.75;;;-142.34;43.13
12951;BME280;6540;50.858;7.232;2024-02-26T08:45:02;52068.38;;;-142.34;39.48
12951;BME280;6540;50.858;7.232;2024-02-26T08:47:27;52108.72;;;-142.34;40.94
12951;BME280;6540;50.858;7.232;2024-02-26T08:49:53;52120.84;;;-142.34;42.54
12951;BME280;6540;50.858;7.232;2024-02-26T08:52:19;52080.50;;;-142.34;41.74
12951;BME280;6540;50.858;7.232;2024-02-26T08:54:44;52124.88;;;-142.34;42.36
12951;BME280;6540;50.858;7.232;2024-02-26T08:57:09;52100.66;;;-142.34;43.56
12951;BME280;6540;50.858;7.232;2024-02-26T08:59:35;52088.56;;;-142.34;42.15
12951;BME280;6540;50.858;7.232;2024-02-26T09:02:00;52056.28;;;-142.34;43.33
12951;BME280;6540;50.858;7.232;2024-02-26T09:04:25;52076.44;;;-142.34;43.67
12951;BME280;6540;50.858;7.232;2024-02-26T09:06:52;52126.88;;;-142.34;43.59
12951;BME280;6540;50.858;7.232;2024-02-26T09:09:18;52108.72;;;-142.34;41.84
12951;BME280;6540;50.858;7.232;2024-02-26T09:11:43;52058.28;;;-142.34;43.31
12951;BME280;6540;50.858;7.232;2024-02-26T09:14:08;52100.66;;;-142.34;40.87
12951;BME280;6540;50.858;7.232;2024-02-26T09:16:34;52120.84;;;-142.34;42.90
12951;BME280;6540;50.858;7.232;2024-02-26T09:18:59;52040.13;;;-142.34;42.71
12951;BME280;6540;50.858;7.232;2024-02-26T09:21:24;52076.44;;;-142.34;42.53
12951;BME280;6540;50.858;7.232;2024-02-26T09:23:52;52108.72;;;-142.34;41.80
12951;BME280;6540;50.858;7.232;2024-02-26T09:26:18;52068.38;;;-142.34;41.75
12951;BME280;6540;50.858;7.232;2024-02-26T09:28:44;52076.44;;;-142.34;41.79
12951;BME280;6540;50.858;7.232;2024-02-26T09:31:09;52096.63;;;-142.34;42.37
12951;BME280;6540;50.858;7.232;2024-02-26T09:33:35;52072.41;;;-142.34;43.91
12951;BME280;6540;50.858;7.232;2024-02-26T09:36:00;52096.63;;;-142.34;43.95
12951;BME280;6540;50.858;7.232;2024-02-26T09:38:26;52124.88;;;-142.34;43.01
12951;BME280;6540;50.858;7.232;2024-02-26T09:40:52;52080.50;;;-142.34;42.41
12951;BME280;6540;50.858;7.232;2024-02-26T09:43:21;52106.72;;;-142.34;42.48
12951;BME280;6540;50.858;7.232;2024-02-26T09:45:47;52064.34;;;-142.34;41.91
12951;BME280;6540;50.858;7.232;2024-02-26T09:48:14;52090.56;;;-142.34;42.20
12951;BME280;6540;50.858;7.232;2024-02-26T09:50:42;52072.41;;;-142.34;40.90
12951;BME280;6540;50.858;7.232;2024-02-26T09:53:08;52080.50;;;-142.34;43.70
12951;BME280;6540;50.858;7.232;2024-02-26T09:55:35;52102.69;;;-142.34;42.31
12951;BME280;6540;50.858;7.232;2024-02-26T09:58:01;52112.75;;;-142.34;43.64
12951;BME280;6540;50.858;7.232;2024-02-26T10:00:31;52078.47;;;-142.34;41.89
12951;BME280;6540;50.858;7.232;2024-02-26T10:03:03;52068.38;;;-142.34;41.39
12951;BME280;6540;50.858;7.232;2024-02-26T10:05:29;52136.97;;;-142.34;41.33
12951;BME280;6540;50.858;7.232;2024-02-26T10:07:57;52084.53;;;-142.34;43.11
12951;BME280;6540;50.858;7.232;2024-02-26T10:10:23;52096.63;;;-142.34;41.04
12951;BME280;6540;50.858;7.232;2024-02-26T10:12:49;52076.44;;;-142.34;41.17
12951;BME280;6540;50.858;7.232;2024-02-26T10:15:15;52108.72;;;-142.34;41.71
12951;BME280;6540;50.858;7.232;2024-02-26T10:17:41;52080.50;;;-142.34;40.71
12951;BME280;6540;50.858;7.232;2024-02-26T10:20:13;52100.66;;;-142.34;42.26
12951;BME280;6540;50.858;7.232;2024-02-26T10:22:42;52116.81;;;-142.34;41.91
12951;BME280;6540;50.858;7.232;2024-02-26T10:25:08;52076.44;;;-142.34;41.35
12951;BME280;6540;50.858;7.232;2024-02-26T10:27:34;52094.59;;;-142.34;42.76
12951;BME280;6540;50.858;7.232;2024-02-26T10:30:20;52080.50;;;-142.34;41.81
12951;BME280;6540;50.858;7.232;2024-02-26T10:32:46;52104.69;;;-142.34;41.07
12951;BME280;6540;50.858;7.232;2024-02-26T10:35:13;52078.47;;;-142.34;42.09
12951;BME280;6540;50.858;7.232;2024-02-26T10:37:40;52084.53;;;-142.34;41.50
12951;BME280;6540;50.858;7.232;2024-02-26T10:40:09;52088.56;;;-142.34;40.34
12951;BME280;6540;50.858;7.232;2024-02-26T10:42:34;52100.66;;;-142.34;41.79
12951;BME280;6540;50.858;7.232;2024-02-26T10:45:00;52088.56;;;-142.34;43.08
12951;BME280;6540;50.858;7.232;2024-02-26T10:47:27;52106.72;;;-142.34;41.56
12951;BME280;6540;50.858;7.232;2024-02-26T10:49:54;52074.44;;;-142.34;42.47
12951;BME280;6540;50.858;7.232;2024-02-26T10:52:20;52082.50;;;-142.34;42.84
12951;BME280;6540;50.858;7.232;2024-02-26T10:54:47;52048.22;;;-142.34;42.00
12951;BME280;6540;50.858;7.232;2024-02-26T10:57:16;52100.66;;;-142.34;40.43
12951;BME280;6540;50.858;7.232;2024-02-26T10:59:44;52092.59;;;-142.34;41.97
12951;BME280;6540;50.858;7.232;2024-02-26T11:02:10;52136.97;;;-142.34;41.57
12951;BME280;6540;50.858;7.232;2024-02-26T11:04:35;52108.72;;;-142.34;42.17
12951;BME280;6540;50.858;7.232;2024-02-26T11:07:02;52096.63;;;-142.34;43.47
12951;BME280;6540;50.858;7.232;2024-02-26T11:09:28;52100.66;;;-142.34;39.84
12951;BME280;6540;50.858;7.232;2024-02-26T11:11:54;52120.84;;;-142.34;40.66
12951;BME280;6540;50.858;7.232;2024-02-26T11:14:20;52116.81;;;-142.34;41.07
12951;BME280;6540;50.858;7.232;2024-02-26T11:16:47;52130.91;;;-142.34;41.28
12951;BME280;6540;50.858;7.232;2024-02-26T11:19:15;52072.41;;;-142.34;40.36
12951;BME280;6540;50.858;7.232;2024-02-26T11:21:41;52122.84;;;-142.34;39.38
12951;BME280;6540;50.858;7.232;2024-02-26T11:24:12;52080.50;;;-142.34;40.50
12951;BME280;6540;50.858;7.232;2024-02-26T11:26:54;52080.50;;;-142.34;40.02
12951;BME280;6540;50.858;7.232;2024-02-26T11:29:26;52084.53;;;-142.34;40.34
12951;BME280;6540;50.858;7.232;2024-02-26T11:31:52;52120.84;;;-142.34;41.15
12951;BME280;6540;50.858;7.232;2024-02-26T11:34:18;52132.94;;;-142.34;42.00
12951;BME280;6540;50.858;7.232;2024-02-26T11:36:44;52088.56;;;-142.34;42.20
12951;BME280;6540;50.858;7.232;2024-02-26T11:39:11;52100.66;;;-142.34;39.24
12951;BME280;6540;50.858;7.232;2024-02-26T11:41:38;52108.72;;;-142.34;39.27
12951;BME280;6540;50.858;7.232;2024-02-26T11:44:04;52114.78;;;-142.34;40.06
12951;BME280;6540;50.858;7.232;2024-02-26T11:46:42;52102.69;;;-142.34;40.81
12951;BME280;6540;50.858;7.232;2024-02-26T11:49:40;52118.81;;;-142.34;40.88
12951;BME280;6540;50.858;7.232;2024-02-26T11:52:09;52124.88;;;-142.34;42.00
12951;BME280;6540;50.858;7.232;2024-02-26T11:54:56;52088.56;;;-142.34;41.36
12951;BME280;6540;50.858;7.232;2024-02-26T11:57:38;52136.97;;;-142.34;41.55
12951;BME280;6540;50.858;7.232;2024-02-26T12:02:39;52080.50;;;-142.34;41.13
12951;BME280;6540;50.858;7.232;2024-02-26T12:05:19;52068.38;;;-142.34;41.80
12951;BME280;6540;50.858;7.232;2024-02-26T12:08:09;52028.03;;;-142.34;41.71
12951;BME280;6540;50.858;7.232;2024-02-26T12:10:41;52080.50;;;-142.34;41.76
12951;BME280;6540;50.858;7.232;2024-02-26T12:13:14;52116.81;;;-142.34;40.15
12951;BME280;6540;50.858;7.232;2024-02-26T12:15:44;52114.78;;;-142.34;42.57
12951;BME280;6540;50.858;7.232;2024-02-26T12:18:15;52086.53;;;-142.34;40.49
12951;BME280;6540;50.858;7.232;2024-02-26T12:20:42;52106.72;;;-142.34;39.93
12951;BME280;6540;50.858;7.232;2024-02-26T12:23:14;52100.66;;;-142.34;42.00
12951;BME280;6540;50.858;7.232;2024-02-26T12:25:39;52124.88;;;-142.34;42.62
12951;BME280;6540;50.858;7.232;2024-02-26T12:28:05;52088.56;;;-142.34;41.49
12951;BME280;6540;50.858;7.232;2024-02-26T12:30:30;52104.69;;;-142.34;41.52
12951;BME280;6540;50.858;7.232;2024-02-26T12:32:57;52064.34;;;-142.34;40.62
12951;BME280;6540;50.858;7.232;2024-02-26T12:35:24;52102.69;;;-142.34;41.86
12951;BME280;6540;50.858;7.232;2024-02-26T12:37:50;52086.53;;;-142.34;41.26
12951;BME280;6540;50.858;7.232;2024-02-26T12:40:17;52108.72;;;-142.34;41.56
12951;BME280;6540;50.858;7.232;2024-02-26T12:42:42;52116.81;;;-142.34;41.04
12951;BME280;6540;50.858;7.232;2024-02-26T12:45:10;52098.66;;;-142.34;41.35
12951;BME280;6540;50.858;7.232;2024-02-26T12:47:40;52124.88;;;-142.34;42.88